sensor_id;sensor_type;location;lat;lon;timestamp;P1;durP1;ratioP1;P2;durP2;ratioP2
51226;SDS011;42714;48.260;10.980;2024-02-21T00:02:10;10.1;;;2.9;;
51226;SDS011;42714;48.260;10.980;2024-02-21T00:07:09;17.1;;;3.0;;
51226;SDS011;42714;48.260;10.980;2024-02-21T00:12:09;11.5;;;2.2;;
51226;SDS011;42714;48.260;10.980;2024-02-21T00:17:09;10.4;;;2.1;;
51226;SDS011;42714;48.260;10.980;2024-02-21T00:22:09;13.1;;;3.0;;
51226;SDS011;42714;48.260;10.980;2024-02-21T00:27:09;10.9;;;2.1;;
51226;SDS011;42714;48.260;10.980;2024-02-21T00:32:09;11.1;;;2.4;;
51226;SDS011;42714;48.260;10.980;2024-02-21T00:37:09;12.7;;;2.4;;
51226;SDS011;42714;48.260;10.980;2024-02-21T00:42:09;11.8;;;2.4;;
51226;SDS011;42714;48.260;10.980;2024-02-21T00:47:10;11.6;;;2.2;;
51226;SDS011;42714;48.260;10.980;2024-02-21T00:52:09;8.3;;;2.1;;
51226;SDS011;42714;48.260;10.980;2024-02-21T00:57:09;9.8;;;2.5;;
51226;SDS011;42714;48.260;10.980;2024-02-21T01:02:09;12.9;;;2.4;;
51226;SDS011;42714;48.260;10.980;2024-02-21T01:07:09;11.2;;;2.3;;
51226;SDS011;42714;48.260;10.980;2024-02-21T01:12:09;17.5;;;2.6;;
51226;SDS011;42714;48.260;10.980;2024-02-21T01:17:09;12.8;;;2.3;;
51226;SDS011;42714;48.260;10.980;2024-02-21T01:22:09;11.3;;;2.4;;
51226;SDS011;42714;48.260;10.980;2024-02-21T01:27:09;11.4;;;2.0;;
51226;SDS011;42714;48.260;10.980;2024-02-21T01:32:09;8.4;;;2.4;;
51226;SDS011;42714;48.260;10.980;2024-02-21T01:37:09;12.2;;;2.2;;
51226;SDS011;42714;48.260;10.980;2024-02-21T01:42:09;12.1;;;2.2;;
51226;SDS011;42714;48.260;10.980;2024-02-21T01:47:10;10.1;;;2.5;;
51226;SDS011;42714;48.260;10.980;2024-02-21T01:52:09;9.5;;;2.3;;
51226;SDS011;42714;48.260;10.980;2024-02-21T01:57:09;11.3;;;2.2;;
51226;SDS011;42714;48.260;10.980;2024-02-21T02:02:09;12.7;;;2.8;;
51226;SDS011;42714;48.260;10.980;2024-02-21T02:07:09;9.3;;;2.3;;
51226;SDS011;42714;48.260;10.980;2024-02-21T02:12:09;14.0;;;2.0;;
51226;SDS011;42714;48.260;10.980;2024-02-21T02:17:09;10.0;;;1.9;;
51226;SDS011;42714;48.260;10.980;2024-02-21T02:22:09;6.0;;;1.9;;
51226;SDS011;42714;48.260;10.980;2024-02-21T02:27:09;10.5;;;1.6;;
51226;SDS011;42714;48.260;10.980;2024-02-21T02:32:09;12.8;;;2.2;;
51226;SDS011;42714;48.260;10.980;2024-02-21T02:37:09;8.7;;;1.7;;
51226;SDS011;42714;48.260;10.980;2024-02-21T02:42:09;10.7;;;1.8;;
51226;SDS011;42714;48.260;10.980;2024-02-21T02:47:09;8.0;;;1.8;;
51226;SDS011;42714;48.260;10.980;2024-02-21T02:52:09;10.0;;;1.9;;
51226;SDS011;42714;48.260;10.980;2024-02-21T02:57:09;5.0;;;1.7;;
51226;SDS011;42714;48.260;10.980;2024-02-21T03:02:09;8.5;;;1.7;;
51226;SDS011;42714;48.260;10.980;2024-02-21T03:07:09;7.8;;;1.8;;
51226;SDS011;42714;48.260;10.980;2024-02-21T03:12:09;6.2;;;1.5;;
51226;SDS011;42714;48.260;10.980;2024-02-21T03:17:09;7.7;;;1.7;;
51226;SDS011;42714;48.260;10.980;2024-02-21T03:22:09;7.8;;;1.6;;
51226;SDS011;42714;48.260;10.980;2024-02-21T03:27:09;6.7;;;1.3;;
51226;SDS011;42714;48.260;10.980;2024-02-21T03:32:09;11.7;;;2.4;;
51226;SDS011;42714;48.260;10.980;2024-02-21T03:37:09;8.8;;;1.6;;
51226;SDS011;42714;48.260;10.980;2024-02-21T03:42:09;6.3;;;1.5;;
51226;SDS011;42714;48.260;10.980;2024-02-21T03:47:09;9.0;;;1.6;;
51226;SDS011;42714;48.260;10.980;2024-02-21T03:52:09;9.3;;;1.8;;
51226;SDS011;42714;48.260;10.980;2024-02-21T03:57:09;5.0;;;1.3;;
51226;SDS011;42714;48.260;10.980;2024-02-21T04:02:09;9.8;;;1.2;;
51226;SDS011;42714;48.260;10.980;2024-02-21T04:07:10;8.1;;;1.6;;
51226;SDS011;42714;48.260;10.980;2024-02-21T04:12:09;7.6;;;1.4;;
51226;SDS011;42714;48.260;10.980;2024-02-21T04:17:09;7.9;;;1.5;;
51226;SDS011;42714;48.260;10.980;2024-02-21T04:22:09;9.7;;;1.5;;
51226;SDS011;42714;48.260;10.980;2024-02-21T04:27:09;8.8;;;1.5;;
51226;SDS011;42714;48.260;10.980;2024-02-21T04:32:09;8.1;;;1.7;;
51226;SDS011;42714;48.260;10.980;2024-02-21T04:37:09;7.6;;;1.6;;
51226;SDS011;42714;48.260;10.980;2024-02-21T04:42:09;8.2;;;1.2;;
51226;SDS011;42714;48.260;10.980;2024-02-21T04:47:09;8.5;;;1.8;;
51226;SDS011;42714;48.260;10.980;2024-02-21T04:52:09;6.2;;;1.1;;
51226;SDS011;42714;48.260;10.980;2024-02-21T04:57:09;4.4;;;1.3;;
51226;SDS011;42714;48.260;10.980;2024-02-21T05:02:09;4.7;;;1.1;;
51226;SDS011;42714;48.260;10.980;2024-02-21T05:07:09;4.9;;;1.3;;
51226;SDS011;42714;48.260;10.980;2024-02-21T05:12:09;5.3;;;1.4;;
51226;SDS011;42714;48.260;10.980;2024-02-21T05:17:09;8.0;;;1.2;;
51226;SDS011;42714;48.260;10.980;2024-02-21T05:22:10;9.6;;;2.0;;
51226;SDS011;42714;48.260;10.980;2024-02-21T05:27:09;5.4;;;1.1;;
51226;SDS011;42714;48.260;10.980;2024-02-21T05:32:09;6.4;;;1.2;;
51226;SDS011;42714;48.260;10.980;2024-02-21T05:37:09;3.9;;;1.1;;
51226;SDS011;42714;48.260;10.980;2024-02-21T05:42:09;5.8;;;1.4;;
51226;SDS011;42714;48.260;10.980;2024-02-21T05:47:09;4.7;;;1.2;;
51226;SDS011;42714;48.260;10.980;2024-02-21T05:52:09;7.0;;;1.7;;
51226;SDS011;42714;48.260;10.980;2024-02-21T05:57:09;3.8;;;1.0;;
51226;SDS011;42714;48.260;10.980;2024-02-21T06:02:10;7.8;;;1.2;;
51226;SDS011;42714;48.260;10.980;2024-02-21T06:07:09;7.8;;;1.2;;
51226;SDS011;42714;48.260;10.980;2024-02-21T06:12:10;5.0;;;1.0;;
51226;SDS011;42714;48.260;10.980;2024-02-21T06:17:10;5.8;;;1.1;;
51226;SDS011;42714;48.260;10.980;2024-02-21T06:22:10;4.7;;;1.2;;
51226;SDS011;42714;48.260;10.980;2024-02-21T06:27:10;8.3;;;1.3;;
51226;SDS011;42714;48.260;10.980;2024-02-21T06:32:10;8.1;;;1.2;;
51226;SDS011;42714;48.260;10.980;2024-02-21T06:37:10;7.4;;;0.9;;
51226;SDS011;42714;48.260;10.980;2024-02-21T06:42:10;7.8;;;1.0;;
51226;SDS011;42714;48.260;10.980;2024-02-21T06:47:10;6.8;;;0.9;;
51226;SDS011;42714;48.260;10.980;2024-02-21T06:52:10;7.0;;;1.6;;
51226;SDS011;42714;48.260;10.980;2024-02-21T06:57:10;4.5;;;0.9;;
51226;SDS011;42714;48.260;10.980;2024-02-21T07:02:10;5.5;;;1.0;;
51226;SDS011;42714;48.260;10.980;2024-02-21T07:07:10;5.2;;;1.2;;
51226;SDS011;42714;48.260;10.980;2024-02-21T07:12:10;7.0;;;0.9;;
51226;SDS011;42714;48.260;10.980;2024-02-21T07:17:10;5.4;;;1.1;;
51226;SDS011;42714;48.260;10.980;2024-02-21T07:22:10;4.1;;;1.0;;
51226;SDS011;42714;48.260;10.980;2024-02-21T07:27:10;9.6;;;1.1;;
51226;SDS011;42714;48.260;10.980;2024-02-21T07:32:10;4.6;;;0.9;;
51226;SDS011;42714;48.260;10.980;2024-02-21T07:37:10;5.2;;;0.9;;
51226;SDS011;42714;48.260;10.980;2024-02-21T07:42:10;6.7;;;1.3;;
51226;SDS011;42714;48.260;10.980;2024-02-21T07:47:10;7.0;;;0.8;;
51226;SDS011;42714;48.260;10.980;2024-02-21T07:52:10;6.7;;;1.3;;
51226;SDS011;42714;48.260;10.980;2024-02-21T07:57:10;3.9;;;0.8;;
51226;SDS011;42714;48.260;10.980;2024-02-21T08:02:10;2.7;;;0.7;;
51226;SDS011;42714;48.260;10.980;2024-02-21T08:07:10;4.8;;;0.7;;
51226;SDS011;42714;48.260;10.980;2024-02-21T08:12:10;5.9;;;0.8;;
51226;SDS011;42714;48.260;10.980;2024-02-21T08:17:10;3.8;;;0.8;;
51226;SDS011;42714;48.260;10.980;2024-02-21T08:22:10;5.2;;;0.6;;
51226;SDS011;42714;48.260;10.980;2024-02-21T08:27:10;4.9;;;0.6;;
51226;SDS011;42714;48.260;10.980;2024-02-21T08:32:10;3.8;;;0.5;;
51226;SDS011;42714;48.260;10.980;2024-02-21T08:37:10;3.0;;;0.6;;
51226;SDS011;42714;48.260;10.980;2024-02-21T08:42:10;3.5;;;0.4;;
51226;SDS011;42714;48.260;10.980;2024-02-21T08:47:10;5.7;;;0.5;;
51226;SDS011;42714;48.260;10.980;2024-02-21T08:52:10;2.2;;;0.4;;
51226;SDS011;42714;48.260;10.980;2024-02-21T08:57:10;1.8;;;0.4;;
51226;SDS011;42714;48.260;10.980;2024-02-21T09:02:10;1.7;;;0.3;;
51226;SDS011;42714;48.260;10.980;2024-02-21T09:07:10;3.9;;;0.4;;
51226;SDS011;42714;48.260;10.980;2024-02-21T09:12:10;2.9;;;0.4;;
51226;SDS011;42714;48.260;10.980;2024-02-21T09:17:10;2.5;;;0.4;;
51226;SDS011;42714;48.260;10.980;2024-02-21T09:22:10;2.4;;;0.4;;
51226;SDS011;42714;48.260;10.980;2024-02-21T09:27:10;3.1;;;0.6;;
51226;SDS011;42714;48.260;10.980;2024-02-21T09:32:10;3.2;;;0.5;;
51226;SDS011;42714;48.260;10.980;2024-02-21T09:37:10;4.0;;;0.7;;
51226;SDS011;42714;48.260;10.980;2024-02-21T09:42:11;3.5;;;0.7;;
51226;SDS011;42714;48.260;10.980;2024-02-21T09:47:10;2.9;;;0.6;;
51226;SDS011;42714;48.260;10.980;2024-02-21T09:52:10;3.6;;;0.6;;
51226;SDS011;42714;48.260;10.980;2024-02-21T09:57:10;6.5;;;0.8;;
51226;SDS011;42714;48.260;10.980;2024-02-21T10:02:10;3.4;;;0.7;;
51226;SDS011;42714;48.260;10.980;2024-02-21T10:07:10;3.9;;;0.5;;
51226;SDS011;42714;48.260;10.980;2024-02-21T10:12:10;3.8;;;0.5;;
51226;SDS011;42714;48.260;10.980;2024-02-21T10:17:15;5.3;;;0.6;;
51226;SDS011;42714;48.260;10.980;2024-02-21T10:22:10;5.4;;;0.6;;
51226;SDS011;42714;48.260;10.980;2024-02-21T10:27:10;3.8;;;0.5;;
51226;SDS011;42714;48.260;10.980;2024-02-21T10:32:13;3.7;;;0.5;;
51226;SDS011;42714;48.260;10.980;2024-02-21T10:37:10;4.1;;;0.5;;
51226;SDS011;42714;48.260;10.980;2024-02-21T10:47:10;3.5;;;0.6;;
51226;SDS011;42714;48.260;10.980;2024-02-21T10:57:10;2.5;;;0.3;;
51226;SDS011;42714;48.260;10.980;2024-02-21T11:02:10;4.9;;;0.3;;
51226;SDS011;42714;48.260;10.980;2024-02-21T11:07:10;2.0;;;0.2;;
51226;SDS011;42714;48.260;10.980;2024-02-21T11:12:10;2.8;;;0.2;;
51226;SDS011;42714;48.260;10.980;2024-02-21T11:17:20;3.3;;;0.3;;
51226;SDS011;42714;48.260;10.980;2024-02-21T11:27:11;1.9;;;0.2;;
51226;SDS011;42714;48.260;10.980;2024-02-21T11:32:13;1.3;;;0.2;;
51226;SDS011;42714;48.260;10.980;2024-02-21T11:37:12;1.9;;;0.3;;
51226;SDS011;42714;48.260;10.980;2024-02-21T11:42:10;1.8;;;0.3;;
51226;SDS011;42714;48.260;10.980;2024-02-21T11:47:10;3.1;;;0.2;;
51226;SDS011;42714;48.260;10.980;2024-02-21T11:52:10;1.9;;;0.2;;
51226;SDS011;42714;48.260;10.980;2024-02-21T11:57:10;1.8;;;0.2;;
51226;SDS011;42714;48.260;10.980;2024-02-21T12:02:10;6.1;;;0.4;;
51226;SDS011;42714;48.260;10.980;2024-02-21T12:07:10;1.9;;;0.3;;
51226;SDS011;42714;48.260;10.980;2024-02-21T12:12:10;2.7;;;0.3;;
51226;SDS011;42714;48.260;10.980;2024-02-21T12:17:10;1.9;;;0.2;;
51226;SDS011;42714;48.260;10.980;2024-02-21T12:22:15;2.0;;;0.2;;
51226;SDS011;42714;48.260;10.980;2024-02-21T12:27:10;3.3;;;0.4;;
51226;SDS011;42714;48.260;10.980;2024-02-21T12:32:10;2.5;;;0.2;;
51226;SDS011;42714;48.260;10.980;2024-02-21T12:37:10;1.4;;;0.2;;
51226;SDS011;42714;48.260;10.980;2024-02-21T12:42:10;2.9;;;0.3;;
51226;SDS011;42714;48.260;10.980;2024-02-21T12:47:10;1.6;;;0.2;;
51226;SDS011;42714;48.260;10.980;2024-02-21T12:52:10;2.0;;;0.2;;
51226;SDS011;42714;48.260;10.980;2024-02-21T12:57:10;2.0;;;0.2;;
51226;SDS011;42714;48.260;10.980;2024-02-21T13:02:10;4.7;;;0.2;;
51226;SDS011;42714;48.260;10.980;2024-02-21T13:07:10;2.9;;;0.3;;
51226;SDS011;42714;48.260;10.980;2024-02-21T13:12:10;1.9;;;0.2;;
51226;SDS011;42714;48.260;10.980;2024-02-21T13:17:10;3.4;;;0.3;;
51226;SDS011;42714;48.260;10.980;2024-02-21T13:22:10;1.8;;;0.2;;
51226;SDS011;42714;48.260;10.980;2024-02-21T13:27:10;1.4;;;0.2;;
51226;SDS011;42714;48.260;10.980;2024-02-21T13:32:10;11.9;;;0.3;;
51226;SDS011;42714;48.260;10.980;2024-02-21T13:37:10;2.7;;;0.2;;
51226;SDS011;42714;48.260;10.980;2024-02-21T13:42:10;2.7;;;0.2;;
51226;SDS011;42714;48.260;10.980;2024-02-21T13:47:10;1.8;;;0.3;;
51226;SDS011;42714;48.260;10.980;2024-02-21T13:52:10;1.3;;;0.2;;
51226;SDS011;42714;48.260;10.980;2024-02-21T13:57:10;1.9;;;0.2;;
51226;SDS011;42714;48.260;10.980;2024-02-21T14:02:10;2.5;;;0.3;;
51226;SDS011;42714;48.260;10.980;2024-02-21T14:07:10;2.7;;;0.2;;
51226;SDS011;42714;48.260;10.980;2024-02-21T14:12:10;2.8;;;0.2;;
51226;SDS011;42714;48.260;10.980;2024-02-21T14:17:10;1.8;;;0.2;;
51226;SDS011;42714;48.260;10.980;2024-02-21T14:22:10;1.4;;;0.2;;
51226;SDS011;42714;48.260;10.980;2024-02-21T14:27:10;2.1;;;0.3;;
51226;SDS011;42714;48.260;10.980;2024-02-21T14:32:10;2.3;;;0.2;;
51226;SDS011;42714;48.260;10.980;2024-02-21T14:37:10;3.4;;;0.2;;
51226;SDS011;42714;48.260;10.980;2024-02-21T14:42:10;2.8;;;0.2;;
51226;SDS011;42714;48.260;10.980;2024-02-21T14:47:10;6.7;;;0.3;;
51226;SDS011;42714;48.260;10.980;2024-02-21T14:52:10;1.4;;;0.2;;
51226;SDS011;42714;48.260;10.980;2024-02-21T14:57:10;2.8;;;0.2;;
51226;SDS011;42714;48.260;10.980;2024-02-21T15:02:10;4.0;;;0.2;;
51226;SDS011;42714;48.260;10.980;2024-02-21T15:07:10;3.0;;;0.3;;
51226;SDS011;42714;48.260;10.980;2024-02-21T15:12:10;4.3;;;0.3;;
51226;SDS011;42714;48.260;10.980;2024-02-21T15:17:10;2.1;;;0.3;;
51226;SDS011;42714;48.260;10.980;2024-02-21T15:22:10;3.9;;;0.3;;
51226;SDS011;42714;48.260;10.980;2024-02-21T15:27:10;3.1;;;0.4;;
51226;SDS011;42714;48.260;10.980;2024-02-21T15:32:10;2.3;;;0.3;;
51226;SDS011;42714;48.260;10.980;2024-02-21T15:37:10;4.0;;;0.5;;
51226;SDS011;42714;48.260;10.980;2024-02-21T15:42:10;3.4;;;0.3;;
51226;SDS011;42714;48.260;10.980;2024-02-21T15:47:10;3.3;;;0.4;;
51226;SDS011;42714;48.260;10.980;2024-02-21T15:52:10;4.8;;;0.7;;
51226;SDS011;42714;48.260;10.980;2024-02-21T15:57:10;7.2;;;0.3;;
51226;SDS011;42714;48.260;10.980;2024-02-21T16:02:10;2.4;;;0.5;;
51226;SDS011;42714;48.260;10.980;2024-02-21T16:07:11;7.0;;;0.8;;
51226;SDS011;42714;48.260;10.980;2024-02-21T16:12:10;3.6;;;0.7;;
51226;SDS011;42714;48.260;10.980;2024-02-21T16:17:10;3.5;;;0.7;;
51226;SDS011;42714;48.260;10.980;2024-02-21T16:22:10;33.4;;;13.2;;
51226;SDS011;42714;48.260;10.980;2024-02-21T16:27:10;5.2;;;1.1;;
51226;SDS011;42714;48.260;10.980;2024-02-21T16:32:10;6.1;;;0.5;;
51226;SDS011;42714;48.260;10.980;2024-02-21T16:37:11;3.3;;;0.4;;
51226;SDS011;42714;48.260;10.980;2024-02-21T16:42:10;3.2;;;0.5;;
51226;SDS011;42714;48.260;10.980;2024-02-21T16:47:10;31.9;;;8.5;;
51226;SDS011;42714;48.260;10.980;2024-02-21T16:52:10;65.5;;;34.9;;
51226;SDS011;42714;48.260;10.980;2024-02-21T16:57:10;21.0;;;7.6;;
51226;SDS011;42714;48.260;10.980;2024-02-21T17:02:10;58.4;;;17.1;;
51226;SDS011;42714;48.260;10.980;2024-02-21T17:07:10;8.3;;;2.2;;
51226;SDS011;42714;48.260;10.980;2024-02-21T17:12:10;6.7;;;1.2;;
51226;SDS011;42714;48.260;10.980;2024-02-21T17:17:10;23.0;;;5.7;;
51226;SDS011;42714;48.260;10.980;2024-02-21T17:22:10;11.6;;;4.5;;
51226;SDS011;42714;48.260;10.980;2024-02-21T17:27:10;16.7;;;7.0;;
51226;SDS011;42714;48.260;10.980;2024-02-21T17:32:10;25.7;;;10.4;;
51226;SDS011;42714;48.260;10.980;2024-02-21T17:42:10;14.2;;;4.7;;
51226;SDS011;42714;48.260;10.980;2024-02-21T17:47:11;13.5;;;2.6;;
51226;SDS011;42714;48.260;10.980;2024-02-21T17:52:10;17.9;;;4.6;;
51226;SDS011;42714;48.260;10.980;2024-02-21T17:57:10;53.1;;;14.6;;
51226;SDS011;42714;48.260;10.980;2024-02-21T18:02:10;55.5;;;15.5;;
51226;SDS011;42714;48.260;10.980;2024-02-21T18:07:10;43.0;;;11.6;;
51226;SDS011;42714;48.260;10.980;2024-02-21T18:12:10;20.1;;;6.7;;
51226;SDS011;42714;48.260;10.980;2024-02-21T18:17:10;19.7;;;6.8;;
51226;SDS011;42714;48.260;10.980;2024-02-21T18:22:10;44.2;;;16.0;;
51226;SDS011;42714;48.260;10.980;2024-02-21T18:27:10;20.0;;;6.8;;
51226;SDS011;42714;48.260;10.980;2024-02-21T18:32:10;11.4;;;3.9;;
51226;SDS011;42714;48.260;10.980;2024-02-21T18:37:10;21.3;;;8.2;;
51226;SDS011;42714;48.260;10.980;2024-02-21T18:42:10;31.0;;;10.3;;
51226;SDS011;42714;48.260;10.980;2024-02-21T18:47:10;14.2;;;3.8;;
51226;SDS011;42714;48.260;10.980;2024-02-21T18:52:10;11.0;;;3.8;;
51226;SDS011;42714;48.260;10.980;2024-02-21T18:57:10;22.7;;;9.5;;
51226;SDS011;42714;48.260;10.980;2024-02-21T19:02:10;11.7;;;5.0;;
51226;SDS011;42714;48.260;10.980;2024-02-21T19:07:10;16.7;;;6.0;;
51226;SDS011;42714;48.260;10.980;2024-02-21T19:12:10;19.8;;;6.6;;
51226;SDS011;42714;48.260;10.980;2024-02-21T19:17:10;18.7;;;7.8;;
51226;SDS011;42714;48.260;10.980;2024-02-21T19:22:10;12.8;;;5.5;;
51226;SDS011;42714;48.260;10.980;2024-02-21T19:27:10;9.7;;;3.6;;
51226;SDS011;42714;48.260;10.980;2024-02-21T19:32:10;25.7;;;11.6;;
51226;SDS011;42714;48.260;10.980;2024-02-21T19:37:10;19.1;;;9.1;;
51226;SDS011;42714;48.260;10.980;2024-02-21T19:42:10;28.0;;;10.7;;
51226;SDS011;42714;48.260;10.980;2024-02-21T19:47:10;24.4;;;10.8;;
51226;SDS011;42714;48.260;10.980;2024-02-21T19:52:10;29.1;;;12.0;;
51226;SDS011;42714;48.260;10.980;2024-02-21T19:57:10;11.3;;;5.0;;
51226;SDS011;42714;48.260;10.980;2024-02-21T20:02:10;11.6;;;4.5;;
51226;SDS011;42714;48.260;10.980;2024-02-21T20:07:10;14.9;;;6.1;;
51226;SDS011;42714;48.260;10.980;2024-02-21T20:12:10;11.0;;;4.8;;
51226;SDS011;42714;48.260;10.980;2024-02-21T20:17:10;12.2;;;5.9;;
51226;SDS011;42714;48.260;10.980;2024-02-21T20:22:10;13.2;;;5.1;;
51226;SDS011;42714;48.260;10.980;2024-02-21T20:27:10;10.2;;;4.8;;
51226;SDS011;42714;48.260;10.980;2024-02-21T20:32:10;15.3;;;6.6;;
51226;SDS011;42714;48.260;10.980;2024-02-21T20:37:10;15.1;;;6.3;;
51226;SDS011;42714;48.260;10.980;2024-02-21T20:42:10;12.0;;;5.2;;
51226;SDS011;42714;48.260;10.980;2024-02-21T20:47:10;13.1;;;5.2;;
51226;SDS011;42714;48.260;10.980;2024-02-21T20:52:10;12.8;;;5.6;;
51226;SDS011;42714;48.260;10.980;2024-02-21T20:57:10;16.0;;;6.0;;
51226;SDS011;42714;48.260;10.980;2024-02-21T21:02:10;12.3;;;5.6;;
51226;SDS011;42714;48.260;10.980;2024-02-21T21:07:10;18.8;;;8.2;;
51226;SDS011;42714;48.260;10.980;2024-02-21T21:12:10;16.2;;;6.0;;
51226;SDS011;42714;48.260;10.980;2024-02-21T21:17:10;24.9;;;9.6;;
51226;SDS011;42714;48.260;10.980;2024-02-21T21:22:10;21.6;;;8.5;;
51226;SDS011;42714;48.260;10.980;2024-02-21T21:27:10;20.4;;;8.5;;
51226;SDS011;42714;48.260;10.980;2024-02-21T21:32:10;13.9;;;6.8;;
51226;SDS011;42714;48.260;10.980;2024-02-21T21:37:11;9.6;;;3.6;;
51226;SDS011;42714;48.260;10.980;2024-02-21T21:42:10;7.6;;;2.2;;
51226;SDS011;42714;48.260;10.980;2024-02-21T21:47:10;9.1;;;3.7;;
51226;SDS011;42714;48.260;10.980;2024-02-21T21:52:11;7.6;;;3.1;;
51226;SDS011;42714;48.260;10.980;2024-02-21T21:57:10;11.9;;;3.0;;
51226;SDS011;42714;48.260;10.980;2024-02-21T22:02:10;8.6;;;2.3;;
51226;SDS011;42714;48.260;10.980;2024-02-21T22:07:10;8.5;;;1.6;;
51226;SDS011;42714;48.260;10.980;2024-02-21T22:12:10;5.5;;;2.1;;
51226;SDS011;42714;48.260;10.980;2024-02-21T22:17:11;6.6;;;1.6;;
51226;SDS011;42714;48.260;10.980;2024-02-21T22:22:10;4.1;;;1.7;;
51226;SDS011;42714;48.260;10.980;2024-02-21T22:27:11;8.2;;;1.7;;
51226;SDS011;42714;48.260;10.980;2024-02-21T22:32:10;5.2;;;1.8;;
51226;SDS011;42714;48.260;10.980;2024-02-21T22:37:10;5.0;;;1.8;;
51226;SDS011;42714;48.260;10.980;2024-02-21T22:42:10;7.2;;;1.8;;
51226;SDS011;42714;48.260;10.980;2024-02-21T22:47:11;6.4;;;1.9;;
51226;SDS011;42714;48.260;10.980;2024-02-21T22:52:11;4.7;;;1.5;;
51226;SDS011;42714;48.260;10.980;2024-02-21T22:57:10;6.9;;;1.6;;
51226;SDS011;42714;48.260;10.980;2024-02-21T23:02:11;6.3;;;2.2;;
51226;SDS011;42714;48.260;10.980;2024-02-21T23:07:11;9.7;;;4.0;;
51226;SDS011;42714;48.260;10.980;2024-02-21T23:12:11;10.1;;;2.9;;
51226;SDS011;42714;48.260;10.980;2024-02-21T23:17:11;9.7;;;2.3;;
51226;SDS011;42714;48.260;10.980;2024-02-21T23:22:11;6.6;;;1.4;;
51226;SDS011;42714;48.260;10.980;2024-02-21T23:27:11;2.7;;;0.8;;
51226;SDS011;42714;48.260;10.980;2024-02-21T23:32:11;2.9;;;1.1;;
51226;SDS011;42714;48.260;10.980;2024-02-21T23:37:11;3.1;;;1.1;;
51226;SDS011;42714;48.260;10.980;2024-02-21T23:42:11;6.7;;;1.0;;
51226;SDS011;42714;48.260;10.980;2024-02-21T23:47:11;2.9;;;0.6;;
51226;SDS011;42714;48.260;10.980;2024-02-21T23:52:11;2.2;;;0.4;;
51226;SDS011;42714;48.260;10.980;2024-02-21T23:57:11;4.1;;;0.4;;
